Indianapolis, Indiana
Traffic Map
Current Weather Conditions
Indianapolis, Indiana
Overcast
Overcast
18°
Feels Like: 18°
Wind Chill: 18° Ceiling: 1800
Heat Index: 18° Visibility: 10mi
Dew Point: 13° Wind: 12mph
Humidity: 75% Direction: 340° (NNW)
Pressure: 30.01in Gusts: 0mph
Raw Report DataKIND 281554Z 34010KT 10SM OVC018 18/13 A3001 RMK AO2 SLP158 T01780133 $
Traffic Incident Summary
Active as of:
Severity:
Category:
InformationThere was an issue retrieving the traffic information for this location. Please try a different location or try again shortly.
Advertisements
Track Severe Weather on mobile